RYR67ZT EGSS-EPMO
Flight info
| Callsign | RYR67ZT |
|---|---|
| Flight time | N/A |
| Altitude | 39000 |
| Route | CLN P44 RATLO M197 REDFA L620 TACHA DCT RKN L980 HLZ DCT SUBIX DCT OBOKU DCT DOSIX |
| Aircraft | B38M/M-SADE3FGILRWY/SB1 |
Departure
| Time | N/A |
|---|---|
| Airport | London Stansted Airport (EGSS) |
Arrival
| Time | 2026-05-04 22:38 |
|---|---|
| Airport | Warsaw Modlin Airport (EPMO) |
| Time | Latitude | Longitude | Altitude | Speed | Heading |
|---|---|---|---|---|---|
| 2026-05-04 20:58 | 52.00238 | 1.75091 | 20178 ft | 375 kts | 76° |
| 2026-05-04 20:58 | 52.00880 | 1.79208 | 20754 ft | 377 kts | 76° |
| 2026-05-04 20:58 | 52.01525 | 1.83364 | 21207 ft | 381 kts | 76° |
| 2026-05-04 20:58 | 52.02169 | 1.87556 | 21726 ft | 386 kts | 76° |
| 2026-05-04 20:59 | 52.02827 | 1.91797 | 22290 ft | 388 kts | 76° |
| 2026-05-04 20:59 | 52.03487 | 1.96076 | 22805 ft | 392 kts | 76° |
| 2026-05-04 20:59 | 52.04150 | 2.00391 | 23303 ft | 395 kts | 76° |
| 2026-05-04 20:59 | 52.04817 | 2.04742 | 23778 ft | 399 kts | 76° |
| 2026-05-04 21:00 | 52.05487 | 2.09128 | 24260 ft | 402 kts | 76° |
| 2026-05-04 21:00 | 52.06162 | 2.13557 | 24718 ft | 405 kts | 76° |
| 2026-05-04 21:00 | 52.06839 | 2.18016 | 25177 ft | 408 kts | 77° |
| 2026-05-04 21:00 | 52.07510 | 2.22445 | 25617 ft | 410 kts | 77° |
| 2026-05-04 21:01 | 52.08192 | 2.26962 | 26044 ft | 413 kts | 77° |
| 2026-05-04 21:01 | 52.08886 | 2.31569 | 26477 ft | 415 kts | 77° |
| 2026-05-04 21:01 | 52.09573 | 2.36141 | 26890 ft | 418 kts | 77° |
| 2026-05-04 21:01 | 52.10253 | 2.40679 | 27289 ft | 420 kts | 77° |
| 2026-05-04 21:02 | 52.10945 | 2.45310 | 27676 ft | 423 kts | 77° |
| 2026-05-04 21:02 | 52.11720 | 2.49933 | 28060 ft | 425 kts | 73° |
| 2026-05-04 21:02 | 52.12625 | 2.54525 | 28434 ft | 427 kts | 73° |
| 2026-05-04 21:02 | 52.13516 | 2.59150 | 28790 ft | 430 kts | 74° |
| 2026-05-04 21:03 | 52.14400 | 2.63799 | 29134 ft | 431 kts | 74° |
| 2026-05-04 21:03 | 52.15284 | 2.68478 | 29416 ft | 434 kts | 74° |
| 2026-05-04 21:03 | 52.16169 | 2.73183 | 29700 ft | 436 kts | 74° |
| 2026-05-04 21:03 | 52.17057 | 2.77912 | 29985 ft | 437 kts | 74° |
| 2026-05-04 21:04 | 52.17943 | 2.82651 | 30246 ft | 439 kts | 74° |
| 2026-05-04 21:04 | 52.18834 | 2.87423 | 30506 ft | 441 kts | 74° |
| 2026-05-04 21:04 | 52.19725 | 2.92208 | 30762 ft | 443 kts | 74° |
| 2026-05-04 21:04 | 52.20618 | 2.97021 | 31003 ft | 444 kts | 74° |
| 2026-05-04 21:05 | 52.21514 | 3.01857 | 31234 ft | 446 kts | 74° |
| 2026-05-04 21:05 | 52.22411 | 3.06711 | 31476 ft | 448 kts | 74° |
| 2026-05-04 21:05 | 52.23309 | 3.11585 | 31718 ft | 449 kts | 75° |
| 2026-05-04 21:05 | 52.24200 | 3.16431 | 31920 ft | 451 kts | 75° |
| 2026-05-04 21:06 | 52.25092 | 3.21353 | 32136 ft | 453 kts | 77° |
| 2026-05-04 21:06 | 52.25484 | 3.26420 | 32326 ft | 450 kts | 93° |
| 2026-05-04 21:06 | 52.25390 | 3.31530 | 32529 ft | 452 kts | 92° |
| 2026-05-04 21:06 | 52.25324 | 3.36683 | 32658 ft | 455 kts | 93° |
| 2026-05-04 21:07 | 52.25235 | 3.41836 | 32907 ft | 455 kts | 94° |
| 2026-05-04 21:07 | 52.25131 | 3.47002 | 33063 ft | 458 kts | 94° |
| 2026-05-04 21:07 | 52.25017 | 3.52187 | 33267 ft | 458 kts | 94° |
| 2026-05-04 21:07 | 52.24901 | 3.57394 | 33485 ft | 459 kts | 94° |
| 2026-05-04 21:08 | 52.24782 | 3.62591 | 33728 ft | 459 kts | 94° |
| 2026-05-04 21:08 | 52.24701 | 3.66036 | 33895 ft | 459 kts | 94° |
| 2026-05-04 21:08 | 52.24537 | 3.72922 | 34199 ft | 458 kts | 94° |
| 2026-05-04 21:08 | 52.24411 | 3.78114 | 34432 ft | 458 kts | 94° |
| 2026-05-04 21:09 | 52.24284 | 3.83286 | 34650 ft | 458 kts | 94° |
| 2026-05-04 21:09 | 52.24153 | 3.88475 | 34856 ft | 458 kts | 94° |
| 2026-05-04 21:09 | 52.24063 | 3.91990 | 34989 ft | 458 kts | 94° |
| 2026-05-04 21:09 | 52.23930 | 3.97173 | 35194 ft | 458 kts | 94° |
| 2026-05-04 21:10 | 52.23793 | 4.02359 | 35394 ft | 458 kts | 94° |
| 2026-05-04 21:10 | 52.23654 | 4.07538 | 35585 ft | 458 kts | 94° |
| 2026-05-04 21:10 | 52.23512 | 4.12734 | 35759 ft | 457 kts | 94° |
| 2026-05-04 21:10 | 52.23369 | 4.17900 | 35957 ft | 455 kts | 94° |
| 2026-05-04 21:11 | 52.23077 | 4.28220 | 36099 ft | 457 kts | 94° |
| 2026-05-04 21:11 | 52.22927 | 4.33400 | 36259 ft | 457 kts | 94° |
| 2026-05-04 21:11 | 52.22774 | 4.38588 | 36389 ft | 458 kts | 94° |
| 2026-05-04 21:12 | 52.22619 | 4.43776 | 36540 ft | 458 kts | 94° |
| 2026-05-04 21:12 | 52.22462 | 4.48966 | 36696 ft | 458 kts | 94° |
| 2026-05-04 21:12 | 52.22303 | 4.54139 | 36968 ft | 454 kts | 94° |
| 2026-05-04 21:12 | 52.22144 | 4.59259 | 37237 ft | 451 kts | 94° |
| 2026-05-04 21:13 | 52.21982 | 4.64366 | 37410 ft | 450 kts | 94° |
| 2026-05-04 21:13 | 52.21819 | 4.69454 | 37526 ft | 450 kts | 94° |
| 2026-05-04 21:13 | 52.21654 | 4.74544 | 37637 ft | 450 kts | 94° |
| 2026-05-04 21:13 | 52.21486 | 4.79648 | 37748 ft | 451 kts | 94° |
| 2026-05-04 21:14 | 52.21144 | 4.89841 | 37936 ft | 451 kts | 94° |
| 2026-05-04 21:14 | 52.20795 | 4.99988 | 38122 ft | 451 kts | 94° |
| 2026-05-04 21:15 | 52.20434 | 5.10190 | 38304 ft | 451 kts | 94° |
| 2026-05-04 21:15 | 52.20065 | 5.20408 | 38450 ft | 452 kts | 95° |
| 2026-05-04 21:16 | 52.19686 | 5.30632 | 38618 ft | 452 kts | 95° |
| 2026-05-04 21:16 | 52.19309 | 5.40586 | 38758 ft | 452 kts | 95° |
| 2026-05-04 21:17 | 52.18913 | 5.50805 | 38941 ft | 451 kts | 95° |
| 2026-05-04 21:17 | 52.18510 | 5.60980 | 39018 ft | 451 kts | 95° |
| 2026-05-04 21:18 | 52.18097 | 5.71187 | 39010 ft | 451 kts | 95° |
| 2026-05-04 21:18 | 52.17675 | 5.81396 | 39000 ft | 452 kts | 95° |
| 2026-05-04 21:19 | 52.17244 | 5.91607 | 39003 ft | 451 kts | 95° |
| 2026-05-04 21:19 | 52.16804 | 6.01809 | 38995 ft | 452 kts | 95° |
| 2026-05-04 21:20 | 52.16403 | 6.12009 | 38987 ft | 452 kts | 91° |
| 2026-05-04 21:20 | 52.16351 | 6.22235 | 39006 ft | 452 kts | 92° |
| 2026-05-04 21:21 | 52.16239 | 6.32462 | 38996 ft | 452 kts | 92° |
| 2026-05-04 21:21 | 52.16110 | 6.42699 | 39001 ft | 452 kts | 92° |
| 2026-05-04 21:22 | 52.15973 | 6.52935 | 39002 ft | 452 kts | 92° |
| 2026-05-04 21:22 | 52.15828 | 6.63108 | 38992 ft | 452 kts | 92° |
| 2026-05-04 21:23 | 52.15673 | 6.73346 | 38983 ft | 453 kts | 92° |
| 2026-05-04 21:23 | 52.15509 | 6.83591 | 38979 ft | 453 kts | 92° |
| 2026-05-04 21:24 | 52.15335 | 6.93846 | 38981 ft | 453 kts | 92° |
| 2026-05-04 21:24 | 52.15153 | 7.04099 | 38980 ft | 453 kts | 93° |
| 2026-05-04 21:25 | 52.15205 | 7.14347 | 38985 ft | 453 kts | 86° |
| 2026-05-04 21:25 | 52.15683 | 7.24592 | 38967 ft | 454 kts | 86° |
| 2026-05-04 21:26 | 52.16171 | 7.34843 | 38977 ft | 455 kts | 86° |
| 2026-05-04 21:26 | 52.16653 | 7.45119 | 38970 ft | 455 kts | 86° |
| 2026-05-04 21:27 | 52.17125 | 7.55374 | 38972 ft | 455 kts | 87° |
| 2026-05-04 21:27 | 52.17590 | 7.65666 | 38970 ft | 455 kts | 87° |
| 2026-05-04 21:28 | 52.18007 | 7.75953 | 38964 ft | 455 kts | 87° |
| 2026-05-04 21:28 | 52.18418 | 7.86251 | 38971 ft | 455 kts | 87° |
| 2026-05-04 21:29 | 52.18820 | 7.96535 | 38967 ft | 455 kts | 87° |
| 2026-05-04 21:29 | 52.19214 | 8.06840 | 38970 ft | 455 kts | 88° |
| 2026-05-04 21:30 | 52.19598 | 8.17134 | 38971 ft | 456 kts | 88° |
| 2026-05-04 21:30 | 52.19977 | 8.27444 | 38972 ft | 456 kts | 87° |
| 2026-05-04 21:31 | 52.20562 | 8.42896 | 38973 ft | 455 kts | 88° |
| 2026-05-04 21:32 | 52.20937 | 8.53205 | 38967 ft | 455 kts | 88° |
| 2026-05-04 21:32 | 52.21304 | 8.63507 | 38971 ft | 455 kts | 88° |
| 2026-05-04 21:33 | 52.21661 | 8.73797 | 38971 ft | 455 kts | 88° |
| 2026-05-04 21:33 | 52.22010 | 8.84099 | 38970 ft | 455 kts | 88° |
| 2026-05-04 21:34 | 52.22349 | 8.94415 | 38971 ft | 455 kts | 88° |
| 2026-05-04 21:34 | 52.22680 | 9.04715 | 38968 ft | 455 kts | 88° |
| 2026-05-04 21:35 | 52.22998 | 9.14940 | 38963 ft | 455 kts | 88° |
| 2026-05-04 21:35 | 52.23313 | 9.25314 | 38963 ft | 455 kts | 88° |
| 2026-05-04 21:36 | 52.23625 | 9.35619 | 38971 ft | 455 kts | 88° |
| 2026-05-04 21:36 | 52.23925 | 9.45858 | 38972 ft | 455 kts | 88° |
| 2026-05-04 21:37 | 52.24218 | 9.56153 | 38978 ft | 455 kts | 88° |
| 2026-05-04 21:37 | 52.24502 | 9.66455 | 38984 ft | 455 kts | 88° |
| 2026-05-04 21:38 | 52.24778 | 9.76764 | 38989 ft | 455 kts | 88° |
| 2026-05-04 21:38 | 52.25052 | 9.87069 | 38988 ft | 455 kts | 86° |
| 2026-05-04 21:39 | 52.26207 | 9.97177 | 39011 ft | 454 kts | 79° |
| 2026-05-04 21:39 | 52.27474 | 10.07288 | 38981 ft | 455 kts | 79° |
| 2026-05-04 21:40 | 52.28744 | 10.17408 | 38991 ft | 455 kts | 79° |
| 2026-05-04 21:40 | 52.30008 | 10.27553 | 38992 ft | 456 kts | 79° |
| 2026-05-04 21:41 | 52.31262 | 10.37687 | 38991 ft | 455 kts | 79° |
| 2026-05-04 21:41 | 52.32509 | 10.47838 | 38989 ft | 455 kts | 79° |
| 2026-05-04 21:42 | 52.33747 | 10.58000 | 38989 ft | 456 kts | 79° |
| 2026-05-04 21:42 | 52.34976 | 10.68158 | 38985 ft | 455 kts | 79° |
| 2026-05-04 21:43 | 52.36189 | 10.78312 | 38984 ft | 455 kts | 81° |
| 2026-05-04 21:43 | 52.36508 | 10.88599 | 38989 ft | 454 kts | 89° |
| 2026-05-04 21:44 | 52.36717 | 10.98922 | 38995 ft | 454 kts | 89° |
| 2026-05-04 21:44 | 52.36906 | 11.09261 | 38992 ft | 455 kts | 89° |
| 2026-05-04 21:45 | 52.37086 | 11.19587 | 38991 ft | 454 kts | 89° |
| 2026-05-04 21:45 | 52.37255 | 11.29851 | 38986 ft | 454 kts | 89° |
| 2026-05-04 21:46 | 52.37417 | 11.40231 | 38985 ft | 454 kts | 89° |
| 2026-05-04 21:46 | 52.37570 | 11.50574 | 38992 ft | 454 kts | 89° |
| 2026-05-04 21:47 | 52.37712 | 11.60817 | 38982 ft | 453 kts | 89° |
| 2026-05-04 21:47 | 52.37846 | 11.71125 | 38981 ft | 453 kts | 89° |
| 2026-05-04 21:48 | 52.37971 | 11.81425 | 38980 ft | 453 kts | 89° |
| 2026-05-04 21:48 | 52.38087 | 11.91737 | 38981 ft | 453 kts | 89° |
| 2026-05-04 21:49 | 52.38194 | 12.02024 | 38980 ft | 453 kts | 90° |
| 2026-05-04 21:49 | 52.38292 | 12.12324 | 38987 ft | 453 kts | 90° |
| 2026-05-04 21:50 | 52.38380 | 12.22632 | 38989 ft | 453 kts | 90° |
| 2026-05-04 21:50 | 52.38461 | 12.32937 | 38970 ft | 454 kts | 90° |
| 2026-05-04 21:51 | 52.38533 | 12.43246 | 38954 ft | 453 kts | 90° |
| 2026-05-04 21:51 | 52.38595 | 12.53559 | 38954 ft | 453 kts | 90° |
| 2026-05-04 21:52 | 52.38648 | 12.63871 | 38953 ft | 453 kts | 90° |
| 2026-05-04 21:52 | 52.38693 | 12.74197 | 38952 ft | 454 kts | 90° |
| 2026-05-04 21:53 | 52.38729 | 12.84503 | 38951 ft | 454 kts | 90° |
| 2026-05-04 21:53 | 52.38755 | 12.94842 | 38962 ft | 454 kts | 90° |
| 2026-05-04 21:54 | 52.38772 | 13.05162 | 38962 ft | 454 kts | 90° |
| 2026-05-04 21:54 | 52.38781 | 13.15510 | 38962 ft | 454 kts | 90° |
| 2026-05-04 21:55 | 52.38781 | 13.24085 | 38962 ft | 454 kts | 90° |
| 2026-05-04 21:55 | 52.38773 | 13.34419 | 38962 ft | 454 kts | 91° |
| 2026-05-04 21:56 | 52.38752 | 13.46424 | 38963 ft | 454 kts | 91° |
| 2026-05-04 21:56 | 52.38730 | 13.55070 | 38954 ft | 454 kts | 91° |
| 2026-05-04 21:57 | 52.38695 | 13.65385 | 38965 ft | 454 kts | 91° |
| 2026-05-04 21:57 | 52.38651 | 13.75703 | 38962 ft | 453 kts | 91° |
| 2026-05-04 21:58 | 52.38599 | 13.85947 | 38962 ft | 453 kts | 91° |
| 2026-05-04 21:58 | 52.38536 | 13.96312 | 38962 ft | 453 kts | 91° |
| 2026-05-04 21:59 | 52.38466 | 14.06537 | 38965 ft | 453 kts | 91° |
| 2026-05-04 21:59 | 52.38387 | 14.16830 | 38962 ft | 452 kts | 91° |
| 2026-05-04 22:00 | 52.38300 | 14.27121 | 38961 ft | 453 kts | 91° |
| 2026-05-04 22:00 | 52.38206 | 14.37431 | 38963 ft | 453 kts | 91° |
| 2026-05-04 22:01 | 52.38103 | 14.47718 | 38962 ft | 453 kts | 91° |
| 2026-05-04 22:01 | 52.37978 | 14.58028 | 38960 ft | 453 kts | 93° |
| 2026-05-04 22:02 | 52.37789 | 14.68332 | 38947 ft | 453 kts | 88° |
| 2026-05-04 22:02 | 52.38265 | 14.78581 | 38908 ft | 452 kts | 77° |
| 2026-05-04 22:03 | 52.38640 | 14.88690 | 38970 ft | 445 kts | 99° |
| 2026-05-04 22:03 | 52.38399 | 14.98822 | 38995 ft | 446 kts | 89° |
| 2026-05-04 22:04 | 52.38495 | 15.09025 | 38958 ft | 450 kts | 90° |
| 2026-05-04 22:04 | 52.38579 | 15.19296 | 38966 ft | 453 kts | 90° |
| 2026-05-04 22:05 | 52.38653 | 15.29598 | 38961 ft | 453 kts | 90° |
| 2026-05-04 22:05 | 52.38719 | 15.39848 | 38961 ft | 453 kts | 90° |
| 2026-05-04 22:06 | 52.38775 | 15.50152 | 38963 ft | 453 kts | 90° |
| 2026-05-04 22:06 | 52.38824 | 15.60460 | 38963 ft | 453 kts | 90° |
| 2026-05-04 22:07 | 52.38862 | 15.70751 | 38957 ft | 452 kts | 90° |
| 2026-05-04 22:07 | 52.38892 | 15.81047 | 38961 ft | 452 kts | 90° |
| 2026-05-04 22:08 | 52.38913 | 15.91338 | 38962 ft | 452 kts | 90° |
| 2026-05-04 22:08 | 52.38925 | 16.01637 | 38960 ft | 452 kts | 90° |
| 2026-05-04 22:09 | 52.38928 | 16.11900 | 38960 ft | 452 kts | 90° |
| 2026-05-04 22:09 | 52.38922 | 16.22181 | 38963 ft | 452 kts | 90° |
| 2026-05-04 22:10 | 52.38907 | 16.32462 | 38960 ft | 452 kts | 90° |
| 2026-05-04 22:10 | 52.38883 | 16.42758 | 38964 ft | 452 kts | 91° |
| 2026-05-04 22:11 | 52.38851 | 16.53025 | 38961 ft | 452 kts | 91° |
| 2026-05-04 22:11 | 52.38809 | 16.63317 | 38962 ft | 452 kts | 91° |
| 2026-05-04 22:12 | 52.38758 | 16.73617 | 38958 ft | 452 kts | 91° |
| 2026-05-04 22:12 | 52.38730 | 16.78723 | 38455 ft | 449 kts | 91° |
| 2026-05-04 22:12 | 52.38700 | 16.83861 | 37636 ft | 453 kts | 91° |
| 2026-05-04 22:12 | 52.38666 | 16.89006 | 36997 ft | 453 kts | 91° |
| 2026-05-04 22:13 | 52.38631 | 16.94131 | 36543 ft | 448 kts | 91° |
| 2026-05-04 22:13 | 52.38594 | 16.99192 | 36154 ft | 442 kts | 91° |
| 2026-05-04 22:13 | 52.38556 | 17.04195 | 35672 ft | 439 kts | 91° |
| 2026-05-04 22:13 | 52.38515 | 17.09191 | 35119 ft | 438 kts | 91° |
| 2026-05-04 22:14 | 52.38473 | 17.14157 | 34608 ft | 436 kts | 91° |
| 2026-05-04 22:14 | 52.38428 | 17.19101 | 34108 ft | 433 kts | 91° |
| 2026-05-04 22:14 | 52.38382 | 17.24021 | 33612 ft | 431 kts | 91° |
| 2026-05-04 22:14 | 52.38334 | 17.28913 | 33112 ft | 429 kts | 91° |
| 2026-05-04 22:15 | 52.38284 | 17.33778 | 32602 ft | 427 kts | 91° |
| 2026-05-04 22:15 | 52.38234 | 17.38564 | 32132 ft | 425 kts | 91° |
| 2026-05-04 22:15 | 52.38181 | 17.43385 | 31640 ft | 423 kts | 91° |
| 2026-05-04 22:15 | 52.38126 | 17.48182 | 31171 ft | 420 kts | 91° |
| 2026-05-04 22:16 | 52.38069 | 17.52941 | 30691 ft | 418 kts | 91° |
| 2026-05-04 22:16 | 52.38011 | 17.57705 | 30219 ft | 416 kts | 91° |
| 2026-05-04 22:16 | 52.37951 | 17.62420 | 29766 ft | 414 kts | 91° |
| 2026-05-04 22:16 | 52.37890 | 17.67115 | 29303 ft | 411 kts | 91° |
| 2026-05-04 22:17 | 52.37827 | 17.71784 | 28856 ft | 409 kts | 91° |
| 2026-05-04 22:17 | 52.37763 | 17.76416 | 28414 ft | 407 kts | 91° |
| 2026-05-04 22:17 | 52.37697 | 17.81027 | 27974 ft | 404 kts | 92° |
| 2026-05-04 22:17 | 52.37630 | 17.85618 | 27537 ft | 402 kts | 92° |
| 2026-05-04 22:18 | 52.37562 | 17.90177 | 27099 ft | 399 kts | 92° |
| 2026-05-04 22:18 | 52.37492 | 17.94706 | 26678 ft | 397 kts | 92° |
| 2026-05-04 22:18 | 52.37421 | 17.99203 | 26267 ft | 395 kts | 92° |
| 2026-05-04 22:18 | 52.37349 | 18.03678 | 25857 ft | 392 kts | 92° |
| 2026-05-04 22:19 | 52.37276 | 18.08126 | 25438 ft | 390 kts | 92° |
| 2026-05-04 22:19 | 52.37201 | 18.12532 | 25025 ft | 388 kts | 92° |
| 2026-05-04 22:19 | 52.37125 | 18.16927 | 24624 ft | 385 kts | 92° |
| 2026-05-04 22:19 | 52.37048 | 18.21301 | 24214 ft | 383 kts | 93° |
| 2026-05-04 22:20 | 52.36970 | 18.25651 | 23822 ft | 381 kts | 93° |
| 2026-05-04 22:20 | 52.36891 | 18.29977 | 23420 ft | 379 kts | 93° |
| 2026-05-04 22:20 | 52.36811 | 18.34272 | 23033 ft | 377 kts | 93° |
| 2026-05-04 22:20 | 52.36729 | 18.38545 | 22638 ft | 375 kts | 93° |
| 2026-05-04 22:21 | 52.36646 | 18.42797 | 22249 ft | 373 kts | 93° |
| 2026-05-04 22:21 | 52.36562 | 18.47024 | 21852 ft | 371 kts | 93° |
| 2026-05-04 22:21 | 52.36478 | 18.51231 | 21470 ft | 368 kts | 93° |
| 2026-05-04 22:21 | 52.36392 | 18.55392 | 21097 ft | 366 kts | 93° |
| 2026-05-04 22:22 | 52.36306 | 18.59541 | 20716 ft | 364 kts | 93° |
| 2026-05-04 22:22 | 52.36218 | 18.63678 | 20341 ft | 362 kts | 93° |
| 2026-05-04 22:22 | 52.36129 | 18.67782 | 19963 ft | 360 kts | 93° |
| 2026-05-04 22:22 | 52.36040 | 18.71864 | 19583 ft | 358 kts | 93° |
| 2026-05-04 22:23 | 52.35949 | 18.75922 | 19213 ft | 356 kts | 93° |
| 2026-05-04 22:23 | 52.35858 | 18.79960 | 18839 ft | 354 kts | 93° |
| 2026-05-04 22:23 | 52.35766 | 18.83968 | 18479 ft | 352 kts | 93° |
| 2026-05-04 22:23 | 52.35673 | 18.87955 | 18104 ft | 350 kts | 93° |
| 2026-05-04 22:24 | 52.35579 | 18.91917 | 17744 ft | 347 kts | 93° |
| 2026-05-04 22:24 | 52.35487 | 18.95835 | 17391 ft | 345 kts | 93° |
| 2026-05-04 22:24 | 52.35407 | 18.99695 | 17043 ft | 343 kts | 93° |
| 2026-05-04 22:24 | 52.35303 | 19.03582 | 16682 ft | 341 kts | 93° |
| 2026-05-04 22:25 | 52.35203 | 19.07437 | 16308 ft | 339 kts | 93° |
| 2026-05-04 22:25 | 52.35104 | 19.11272 | 15959 ft | 337 kts | 93° |
| 2026-05-04 22:25 | 52.35006 | 19.15087 | 15615 ft | 335 kts | 93° |
| 2026-05-04 22:25 | 52.34907 | 19.18881 | 15267 ft | 332 kts | 93° |
| 2026-05-04 22:26 | 52.34822 | 19.22656 | 14893 ft | 331 kts | 90° |
| 2026-05-04 22:26 | 52.35014 | 19.26409 | 14490 ft | 331 kts | 85° |
| 2026-05-04 22:26 | 52.35231 | 19.30142 | 14137 ft | 329 kts | 85° |
| 2026-05-04 22:26 | 52.35430 | 19.33868 | 13792 ft | 328 kts | 86° |
| 2026-05-04 22:27 | 52.35615 | 19.37563 | 13424 ft | 327 kts | 86° |
| 2026-05-04 22:27 | 52.35794 | 19.41275 | 13051 ft | 327 kts | 86° |
| 2026-05-04 22:27 | 52.35968 | 19.44976 | 12683 ft | 326 kts | 86° |
| 2026-05-04 22:27 | 52.36140 | 19.48661 | 12316 ft | 324 kts | 86° |
| 2026-05-04 22:28 | 52.36307 | 19.52316 | 11958 ft | 322 kts | 86° |
| 2026-05-04 22:28 | 52.36475 | 19.55961 | 11588 ft | 321 kts | 86° |
| 2026-05-04 22:28 | 52.36639 | 19.59588 | 11227 ft | 320 kts | 87° |
| 2026-05-04 22:28 | 52.36805 | 19.63206 | 10873 ft | 318 kts | 86° |
| 2026-05-04 22:29 | 52.36966 | 19.66807 | 10516 ft | 317 kts | 86° |
| 2026-05-04 22:29 | 52.37126 | 19.70388 | 10168 ft | 315 kts | 87° |
| 2026-05-04 22:29 | 52.37282 | 19.73963 | 9798 ft | 313 kts | 86° |
| 2026-05-04 22:29 | 52.37453 | 19.77502 | 9429 ft | 313 kts | 84° |
| 2026-05-04 22:30 | 52.37741 | 19.81023 | 9061 ft | 311 kts | 83° |
| 2026-05-04 22:30 | 52.38028 | 19.84526 | 8716 ft | 310 kts | 83° |
| 2026-05-04 22:30 | 52.38307 | 19.88015 | 8376 ft | 308 kts | 83° |
| 2026-05-04 22:30 | 52.38583 | 19.91494 | 8025 ft | 308 kts | 83° |
| 2026-05-04 22:31 | 52.38854 | 19.94955 | 7684 ft | 306 kts | 83° |
| 2026-05-04 22:31 | 52.39124 | 19.98398 | 7341 ft | 304 kts | 83° |
| 2026-05-04 22:31 | 52.39388 | 20.01820 | 7006 ft | 302 kts | 83° |
| 2026-05-04 22:31 | 52.39650 | 20.05223 | 6670 ft | 301 kts | 83° |
| 2026-05-04 22:32 | 52.39913 | 20.08619 | 6323 ft | 300 kts | 83° |
| 2026-05-04 22:32 | 52.40171 | 20.11988 | 5998 ft | 298 kts | 83° |
| 2026-05-04 22:32 | 52.40427 | 20.15351 | 5647 ft | 297 kts | 83° |
| 2026-05-04 22:32 | 52.40682 | 20.18697 | 5307 ft | 296 kts | 83° |
| 2026-05-04 22:33 | 52.40985 | 20.22016 | 4975 ft | 294 kts | 81° |
| 2026-05-04 22:33 | 52.41308 | 20.25322 | 4620 ft | 294 kts | 81° |
| 2026-05-04 22:33 | 52.41625 | 20.28621 | 4300 ft | 292 kts | 81° |
| 2026-05-04 22:33 | 52.41942 | 20.31895 | 3972 ft | 291 kts | 81° |
| 2026-05-04 22:34 | 52.42259 | 20.35148 | 3612 ft | 286 kts | 81° |
| 2026-05-04 22:34 | 52.42562 | 20.38291 | 3204 ft | 270 kts | 81° |
| 2026-05-04 22:34 | 52.42845 | 20.41192 | 2948 ft | 245 kts | 80° |
| 2026-05-04 22:34 | 52.43112 | 20.43836 | 2667 ft | 225 kts | 82° |
| 2026-05-04 22:35 | 52.43343 | 20.46266 | 2393 ft | 208 kts | 83° |
| 2026-05-04 22:35 | 52.43554 | 20.48517 | 2138 ft | 199 kts | 82° |
| 2026-05-04 22:35 | 52.43761 | 20.50729 | 1939 ft | 195 kts | 82° |
| 2026-05-04 22:35 | 52.43969 | 20.52937 | 1646 ft | 192 kts | 81° |
| 2026-05-04 22:36 | 52.44163 | 20.55004 | 1403 ft | 176 kts | 81° |
| 2026-05-04 22:36 | 52.44339 | 20.56880 | 1166 ft | 156 kts | 81° |
| 2026-05-04 22:36 | 52.44499 | 20.58581 | 957 ft | 148 kts | 81° |
| 2026-05-04 22:36 | 52.44649 | 20.60179 | 776 ft | 139 kts | 81° |
| 2026-05-04 22:37 | 52.44798 | 20.61764 | 592 ft | 142 kts | 81° |
| 2026-05-04 22:37 | 52.44950 | 20.63369 | 399 ft | 142 kts | 81° |
| 2026-05-04 22:37 | 52.45095 | 20.64929 | 339 ft | 131 kts | 81° |
| 2026-05-04 22:37 | 52.45178 | 20.65789 | 342 ft | 52 kts | 81° |
| 2026-05-04 22:38 | 52.45195 | 20.65997 | 338 ft | 0 kts | 104° |
| 2026-05-04 22:38 | 52.45184 | 20.66029 | 336 ft | 1 kts | 131° |
| 2026-05-04 22:38 | 52.45108 | 20.66064 | 341 ft | 17 kts | 188° |
| 2026-05-04 22:38 | 52.44989 | 20.66096 | 339 ft | 0 kts | 161° |
| 2026-05-04 22:39 | 52.44965 | 20.66109 | 338 ft | 0 kts | 161° |
| 2026-05-04 22:39 | 52.44957 | 20.66113 | 339 ft | 3 kts | 161° |
| 2026-05-04 22:39 | 52.44932 | 20.66127 | 341 ft | 5 kts | 161° |
| 2026-05-04 22:39 | 52.44925 | 20.66131 | 339 ft | 2 kts | 161° |
| 2026-05-04 22:40 | 52.44917 | 20.66136 | 338 ft | 0 kts | 161° |
| 2026-05-04 22:40 | 52.44914 | 20.66136 | 341 ft | 0 kts | 168° |
| 2026-05-04 22:40 | 52.44891 | 20.66122 | 339 ft | 8 kts | 212° |
| 2026-05-04 22:40 | 52.44860 | 20.66003 | 341 ft | 16 kts | 262° |
| 2026-05-04 22:41 | 52.44845 | 20.65832 | 340 ft | 15 kts | 262° |
| 2026-05-04 22:41 | 52.44829 | 20.65672 | 340 ft | 14 kts | 261° |
| 2026-05-04 22:41 | 52.44813 | 20.65508 | 338 ft | 9 kts | 261° |
| 2026-05-04 22:41 | 52.44791 | 20.65382 | 339 ft | 10 kts | 227° |
| 2026-05-04 22:42 | 52.44769 | 20.65354 | 340 ft | 3 kts | 208° |
| 2026-05-04 22:42 | 52.44755 | 20.65341 | 336 ft | 0 kts | 207° |
| 2026-05-04 22:42 | 52.44751 | 20.65338 | 340 ft | 0 kts | 207° |